createdAt,value
2023-03-17T00:01:59.260Z,5.90
2023-03-17T00:04:28.365Z,5.90
2023-03-17T00:06:56.584Z,5.90
2023-03-17T00:09:25.255Z,6.00
2023-03-17T00:11:53.393Z,6.00
2023-03-17T00:14:21.236Z,5.80
2023-03-17T00:16:52.504Z,6.00
2023-03-17T00:19:25.589Z,5.80
2023-03-17T00:21:53.537Z,6.20
2023-03-17T00:24:21.425Z,5.80
2023-03-17T00:26:49.295Z,6.00
2023-03-17T00:29:17.151Z,5.80
2023-03-17T00:31:46.189Z,5.70
2023-03-17T00:34:18.348Z,5.70
2023-03-17T00:36:47.940Z,5.90
2023-03-17T00:41:43.703Z,5.80
2023-03-17T00:44:11.684Z,5.80
2023-03-17T00:46:41.421Z,5.90
2023-03-17T00:51:44.621Z,7.20
2023-03-17T00:54:13.629Z,6.30
2023-03-17T00:56:42.581Z,6.10
2023-03-17T00:59:20.384Z,6.10
2023-03-17T01:01:48.919Z,5.90
2023-03-17T01:04:19.345Z,5.90
2023-03-17T01:06:47.861Z,6.10
2023-03-17T01:09:18.469Z,6.10
2023-03-17T01:11:46.887Z,6.10
2023-03-17T01:14:15.198Z,6.50
2023-03-17T01:16:44.538Z,6.10
2023-03-17T01:19:13.963Z,5.90
2023-03-17T01:21:43.466Z,6.10
2023-03-17T01:24:11.381Z,6.00
2023-03-17T01:26:40.130Z,6.10
2023-03-17T01:29:08.449Z,6.90
2023-03-17T01:31:37.204Z,5.90
2023-03-17T01:34:06.086Z,6.40
2023-03-17T01:36:34.187Z,6.10
2023-03-17T01:39:05.412Z,6.00
2023-03-17T01:41:34.826Z,6.10
2023-03-17T01:44:02.766Z,6.90
2023-03-17T01:46:33.984Z,7.00
2023-03-17T01:49:12.652Z,6.20
2023-03-17T01:51:47.570Z,7.00
2023-03-17T01:54:21.911Z,6.30
2023-03-17T01:56:52.498Z,6.20
2023-03-17T01:59:24.749Z,6.30
2023-03-17T02:01:59.000Z,6.20
2023-03-17T02:04:26.964Z,7.00
2023-03-17T02:06:58.233Z,6.90
2023-03-17T02:09:29.299Z,6.20
2023-03-17T02:11:59.681Z,6.10
2023-03-17T02:14:28.565Z,5.90
2023-03-17T02:16:57.343Z,6.60
2023-03-17T02:19:25.420Z,5.80
2023-03-17T02:21:57.999Z,7.00
2023-03-17T02:24:34.160Z,5.90
2023-03-17T02:27:07.717Z,6.00
2023-03-17T02:29:37.758Z,6.00
2023-03-17T02:32:06.947Z,6.50
2023-03-17T02:34:35.384Z,6.00
2023-03-17T02:37:05.677Z,6.00
2023-03-17T02:39:33.581Z,6.10
2023-03-17T02:42:01.472Z,6.00
2023-03-17T02:44:29.425Z,5.70
2023-03-17T02:46:57.451Z,7.50
2023-03-17T02:49:25.962Z,5.80
2023-03-17T02:51:54.672Z,5.90
2023-03-17T02:54:23.963Z,6.00
2023-03-17T02:56:51.843Z,5.80
2023-03-17T02:59:19.732Z,6.20
2023-03-17T03:01:48.540Z,5.90
2023-03-17T03:04:16.528Z,6.80
2023-03-17T03:06:44.726Z,6.50
2023-03-17T03:09:13.004Z,6.10
2023-03-17T03:11:42.853Z,5.90
2023-03-17T03:14:11.580Z,5.70
2023-03-17T03:16:39.439Z,5.80
2023-03-17T03:19:07.728Z,5.60
2023-03-17T03:21:36.650Z,5.60
2023-03-17T03:24:05.113Z,5.70
2023-03-17T03:26:33.089Z,5.80
2023-03-17T03:29:02.387Z,6.40
2023-03-17T03:31:30.497Z,5.70
2023-03-17T03:33:58.455Z,5.80
2023-03-17T03:36:26.817Z,5.50
2023-03-17T03:38:54.698Z,5.60
2023-03-17T03:41:22.666Z,6.30
2023-03-17T03:43:50.721Z,6.40
2023-03-17T03:46:20.202Z,5.60
2023-03-17T03:48:48.258Z,5.40
2023-03-17T03:51:16.132Z,6.20
2023-03-17T03:53:44.073Z,5.50
2023-03-17T03:56:12.195Z,6.00
2023-03-17T03:58:41.756Z,5.40
2023-03-17T04:01:11.214Z,5.60
2023-03-17T04:03:40.638Z,5.70
2023-03-17T04:06:08.665Z,6.50
2023-03-17T04:08:36.601Z,5.60
2023-03-17T04:11:04.503Z,6.10
2023-03-17T04:13:32.390Z,5.60
2023-03-17T04:16:01.379Z,5.60
2023-03-17T04:18:30.857Z,5.50
2023-03-17T04:21:00.385Z,5.60
2023-03-17T04:23:28.914Z,6.10
2023-03-17T04:25:56.829Z,5.60
2023-03-17T04:28:24.697Z,5.50
2023-03-17T04:30:52.647Z,5.40
2023-03-17T04:33:20.657Z,6.20
2023-03-17T04:35:48.567Z,5.40
2023-03-17T04:38:17.908Z,5.90
2023-03-17T04:40:46.169Z,5.60
2023-03-17T04:43:14.123Z,5.50
2023-03-17T04:45:42.071Z,5.60
2023-03-17T04:48:09.961Z,5.40
2023-03-17T04:50:37.804Z,5.60
2023-03-17T04:53:05.701Z,6.10
2023-03-17T04:55:35.023Z,5.50
2023-03-17T04:58:02.920Z,5.70
2023-03-17T05:00:31.287Z,5.40
2023-03-17T05:02:59.366Z,5.50
2023-03-17T05:05:27.266Z,5.70
2023-03-17T05:07:55.304Z,5.50
2023-03-17T05:10:23.159Z,5.40
2023-03-17T05:12:52.762Z,5.40
2023-03-17T05:15:21.154Z,5.60
2023-03-17T05:17:49.055Z,5.60
2023-03-17T05:20:17.281Z,5.40
2023-03-17T05:22:45.236Z,5.60
2023-03-17T05:25:13.108Z,6.40
2023-03-17T05:27:41.461Z,6.30
2023-03-17T05:30:12.404Z,6.30
2023-03-17T05:32:40.346Z,5.60
2023-03-17T05:35:09.071Z,5.50
2023-03-17T05:37:36.944Z,5.10
2023-03-17T05:40:05.480Z,5.40
2023-03-17T05:42:33.352Z,5.50
2023-03-17T05:45:01.247Z,5.60
2023-03-17T05:47:32.100Z,5.50
2023-03-17T05:49:59.983Z,5.50
2023-03-17T05:52:28.478Z,5.20
2023-03-17T05:54:56.721Z,6.30
2023-03-17T05:57:24.836Z,5.40
2023-03-17T05:59:52.684Z,5.40
2023-03-17T06:02:20.868Z,6.30
2023-03-17T06:04:50.502Z,5.90
2023-03-17T06:07:18.394Z,6.10
2023-03-17T06:09:46.224Z,5.70
2023-03-17T06:12:14.273Z,6.30
2023-03-17T06:14:42.199Z,5.80
2023-03-17T06:17:10.213Z,5.60
2023-03-17T06:19:38.104Z,6.00
2023-03-17T06:22:08.015Z,6.50
2023-03-17T06:24:36.113Z,6.90
2023-03-17T06:27:04.079Z,6.30
2023-03-17T06:29:32.449Z,6.50
2023-03-17T06:32:17.138Z,6.50
2023-03-17T06:34:48.129Z,7.50
2023-03-17T06:37:17.521Z,6.70
2023-03-17T06:39:45.750Z,6.80
2023-03-17T06:42:13.945Z,6.60
2023-03-17T06:44:41.975Z,7.00
2023-03-17T06:47:09.929Z,7.00
2023-03-17T06:49:37.803Z,7.10
2023-03-17T06:52:06.584Z,7.10
2023-03-17T06:54:42.744Z,7.20
2023-03-17T06:57:10.724Z,7.20
2023-03-17T06:59:38.968Z,7.30
2023-03-17T07:02:07.027Z,7.30
2023-03-17T07:04:37.858Z,7.90
2023-03-17T07:07:06.334Z,7.40
2023-03-17T07:09:35.463Z,7.30
2023-03-17T07:12:05.966Z,7.50
2023-03-17T07:14:35.451Z,7.60
2023-03-17T07:17:03.522Z,7.60
2023-03-17T07:19:31.832Z,7.70
2023-03-17T07:22:00.100Z,7.80
2023-03-17T07:24:28.105Z,8.10
2023-03-17T07:26:55.979Z,8.00
2023-03-17T07:29:25.278Z,8.20
2023-03-17T07:31:53.906Z,8.30
2023-03-17T07:34:22.180Z,8.40
2023-03-17T07:36:50.103Z,8.60
2023-03-17T07:39:17.968Z,8.60
2023-03-17T07:41:48.273Z,9.00
2023-03-17T07:44:16.234Z,9.20
2023-03-17T07:46:46.264Z,9.40
2023-03-17T07:49:14.156Z,9.60
2023-03-17T07:51:43.268Z,9.70
2023-03-17T07:54:14.806Z,9.80
2023-03-17T07:56:43.097Z,10.00
2023-03-17T07:59:11.032Z,10.20
2023-03-17T08:01:39.934Z,10.30
2023-03-17T08:04:10.844Z,10.50
2023-03-17T08:06:40.618Z,10.70
2023-03-17T08:09:09.034Z,10.80
2023-03-17T08:11:37.535Z,11.00
2023-03-17T08:14:06.473Z,11.00
2023-03-17T08:16:34.774Z,11.00
2023-03-17T08:19:03.973Z,10.90
2023-03-17T08:21:33.338Z,11.10
2023-03-17T08:24:01.246Z,10.80
2023-03-17T08:26:29.250Z,11.30
2023-03-17T08:28:57.135Z,11.30
2023-03-17T08:31:25.243Z,11.50
2023-03-17T08:33:56.926Z,11.60
2023-03-17T08:36:26.025Z,11.60
2023-03-17T08:39:24.421Z,11.70
2023-03-17T08:41:52.312Z,11.90
2023-03-17T08:44:20.757Z,12.00
2023-03-17T08:46:49.450Z,12.30
2023-03-17T08:49:17.577Z,12.60
2023-03-17T08:51:46.219Z,12.90
2023-03-17T08:54:14.079Z,12.90
2023-03-17T08:56:43.339Z,13.10
2023-03-17T08:59:11.568Z,13.20
2023-03-17T09:01:40.129Z,13.30
2023-03-17T09:04:08.876Z,13.30
2023-03-17T09:06:37.550Z,13.40
2023-03-17T09:09:06.774Z,13.70
2023-03-17T09:11:35.476Z,13.80
2023-03-17T09:14:05.702Z,14.20
2023-03-17T09:16:34.311Z,14.10
2023-03-17T09:19:02.392Z,14.10
2023-03-17T09:21:30.304Z,14.20
2023-03-17T09:24:02.578Z,14.20
2023-03-17T09:26:30.596Z,14.70
2023-03-17T09:28:58.549Z,14.40
2023-03-17T09:31:27.856Z,14.60
2023-03-17T09:33:56.052Z,14.60
2023-03-17T09:36:24.159Z,15.00
2023-03-17T09:38:52.351Z,15.40
2023-03-17T09:42:02.509Z,15.20
2023-03-17T09:44:41.179Z,15.20
2023-03-17T09:47:26.273Z,15.20
2023-03-17T09:49:59.017Z,15.20
2023-03-17T09:52:30.252Z,15.40
2023-03-17T09:54:59.265Z,15.40
2023-03-17T09:57:31.202Z,15.20
2023-03-17T10:00:06.511Z,15.40
2023-03-17T10:02:38.476Z,15.30
2023-03-17T10:05:26.076Z,15.30
2023-03-17T10:08:04.307Z,15.50
2023-03-17T10:10:38.750Z,15.60
2023-03-17T10:13:16.908Z,15.50
2023-03-17T10:15:51.155Z,15.50
2023-03-17T10:18:27.072Z,15.50
2023-03-17T10:20:58.063Z,15.50
2023-03-17T10:23:29.315Z,15.40
2023-03-17T10:26:01.672Z,15.40
2023-03-17T10:28:32.512Z,15.40
2023-03-17T10:31:12.475Z,15.40
2023-03-17T10:33:41.789Z,15.50
2023-03-17T10:36:10.696Z,15.50
2023-03-17T10:38:38.604Z,15.70
2023-03-17T10:41:14.673Z,15.60
2023-03-17T10:43:47.576Z,15.70
2023-03-17T10:46:22.135Z,16.00
2023-03-17T10:48:57.846Z,16.00
2023-03-17T10:51:31.809Z,16.10
2023-03-17T10:54:03.874Z,16.10
2023-03-17T10:56:36.114Z,16.40
2023-03-17T10:59:08.190Z,16.20
2023-03-17T11:01:40.221Z,16.30
2023-03-17T11:04:29.572Z,16.50
2023-03-17T11:06:58.896Z,16.60
2023-03-17T11:09:29.156Z,16.80
2023-03-17T11:12:05.310Z,16.90
2023-03-17T11:14:34.028Z,16.90
2023-03-17T11:17:03.318Z,17.20
2023-03-17T11:19:47.539Z,17.40
2023-03-17T11:22:18.021Z,17.40
2023-03-17T11:24:56.384Z,17.40
2023-03-17T11:27:31.330Z,17.50
2023-03-17T11:30:18.556Z,17.50
2023-03-17T11:32:53.711Z,17.60
2023-03-17T11:35:35.761Z,17.50
2023-03-17T11:38:20.934Z,17.60
2023-03-17T11:41:27.083Z,17.70
2023-03-17T11:48:08.544Z,18.20
2023-03-17T11:51:15.332Z,18.20
2023-03-17T11:54:03.957Z,18.30
2023-03-17T11:56:40.032Z,18.10
2023-03-17T11:59:16.152Z,18.00
2023-03-17T12:01:54.750Z,17.90
2023-03-17T12:04:30.600Z,18.00
2023-03-17T12:07:20.728Z,17.80
2023-03-17T12:10:00.104Z,17.80
2023-03-17T12:12:32.899Z,18.00
2023-03-17T12:15:04.446Z,18.10
2023-03-17T12:17:37.629Z,18.10
2023-03-17T12:20:15.989Z,18.10
2023-03-17T12:22:48.111Z,18.20
2023-03-17T12:25:24.068Z,18.30
2023-03-17T12:28:00.236Z,18.30
2023-03-17T12:30:34.137Z,18.30
2023-03-17T12:33:11.902Z,18.30
2023-03-17T12:35:40.548Z,18.30
2023-03-17T12:38:12.372Z,18.30
2023-03-17T12:41:07.786Z,18.30
2023-03-17T12:43:47.881Z,18.40
2023-03-17T12:46:41.889Z,18.60
2023-03-17T12:49:29.749Z,18.60
2023-03-17T12:52:07.700Z,18.60
2023-03-17T12:54:38.434Z,18.70
2023-03-17T12:57:15.125Z,18.70
2023-03-17T12:59:44.379Z,18.60
2023-03-17T13:02:37.564Z,18.70
2023-03-17T13:05:10.013Z,18.70
2023-03-17T13:07:42.347Z,18.70
2023-03-17T13:10:20.305Z,18.70
2023-03-17T13:13:21.512Z,18.80
2023-03-17T13:16:00.398Z,18.80
2023-03-17T13:18:47.863Z,18.80
2023-03-17T13:21:18.587Z,18.80
2023-03-17T13:23:48.847Z,18.80
2023-03-17T13:26:20.759Z,18.80
2023-03-17T13:29:04.195Z,18.80
2023-03-17T13:31:37.822Z,18.80
2023-03-17T13:34:15.146Z,18.80
2023-03-17T13:36:58.814Z,18.70
2023-03-17T13:40:10.253Z,18.60
2023-03-17T13:43:07.329Z,18.60
2023-03-17T13:45:39.730Z,18.60
2023-03-17T13:48:38.234Z,18.60
2023-03-17T13:51:18.345Z,18.60
2023-03-17T13:53:50.902Z,18.70
2023-03-17T13:56:23.057Z,18.70
2023-03-17T13:59:15.852Z,18.80
2023-03-17T14:01:52.042Z,18.80
2023-03-17T14:04:22.560Z,18.80
2023-03-17T14:06:54.164Z,18.90
2023-03-17T14:09:35.133Z,18.80
2023-03-17T14:12:11.820Z,18.70
2023-03-17T14:14:47.932Z,18.70
2023-03-17T14:17:21.689Z,18.60
2023-03-17T14:20:06.327Z,18.60
2023-03-17T14:22:34.206Z,18.60
2023-03-17T14:25:03.762Z,18.60
2023-03-17T14:27:35.003Z,18.50
2023-03-17T14:30:08.776Z,18.50
2023-03-17T14:32:38.440Z,18.50
2023-03-17T14:35:07.024Z,18.40
2023-03-17T14:37:38.398Z,18.40
2023-03-17T14:40:25.484Z,18.40
2023-03-17T14:42:53.436Z,18.30
2023-03-17T14:45:27.726Z,18.20
2023-03-17T14:47:57.162Z,18.30
2023-03-17T14:50:28.160Z,18.20
2023-03-17T14:52:56.750Z,18.20
2023-03-17T14:55:35.700Z,18.10
2023-03-17T14:58:10.048Z,18.10
2023-03-17T15:00:38.925Z,18.00
2023-03-17T15:03:19.973Z,17.90
2023-03-17T15:05:48.518Z,17.90
2023-03-17T15:08:42.563Z,17.80
2023-03-17T15:11:19.525Z,17.80
2023-03-17T15:13:48.175Z,17.80
2023-03-17T15:16:21.409Z,17.70
2023-03-17T15:18:58.451Z,17.60
2023-03-17T15:21:33.433Z,17.60
2023-03-17T15:24:22.793Z,17.60
2023-03-17T15:26:50.812Z,17.50
2023-03-17T15:29:18.682Z,17.50
2023-03-17T15:31:46.604Z,17.40
2023-03-17T15:34:16.096Z,17.30
2023-03-17T15:36:47.336Z,17.40
2023-03-17T15:39:15.229Z,17.20
2023-03-17T15:41:43.088Z,17.10
2023-03-17T15:44:10.935Z,17.10
2023-03-17T15:46:38.848Z,17.00
2023-03-17T15:49:11.255Z,17.10
2023-03-17T15:51:40.659Z,16.90
2023-03-17T15:54:12.637Z,16.80
2023-03-17T15:56:40.650Z,16.80
2023-03-17T15:59:08.530Z,16.70
2023-03-17T16:01:36.945Z,16.60
2023-03-17T16:04:05.748Z,16.50
2023-03-17T16:06:35.959Z,16.50
2023-03-17T16:09:14.349Z,16.40
2023-03-17T16:11:42.249Z,16.20
2023-03-17T16:14:11.595Z,16.20
2023-03-17T16:16:42.447Z,16.10
2023-03-17T16:19:18.360Z,16.10
2023-03-17T16:21:46.314Z,16.00
2023-03-17T16:24:21.579Z,15.90
2023-03-17T16:26:50.378Z,15.80
2023-03-17T16:29:19.418Z,15.70
2023-03-17T16:31:49.844Z,15.60
2023-03-17T16:34:20.204Z,15.50
2023-03-17T16:36:48.406Z,15.40
2023-03-17T16:39:19.293Z,15.30
2023-03-17T16:41:48.164Z,15.30
2023-03-17T16:44:17.621Z,15.00
2023-03-17T16:46:46.131Z,15.10
2023-03-17T16:49:16.645Z,15.00
2023-03-17T16:51:44.770Z,14.90
2023-03-17T16:54:13.199Z,14.90
2023-03-17T16:56:43.404Z,14.80
2023-03-17T16:59:20.165Z,14.80
2023-03-17T17:01:48.209Z,14.70
2023-03-17T17:04:16.101Z,14.60
2023-03-17T17:06:43.996Z,14.60
2023-03-17T17:09:11.904Z,14.50
2023-03-17T17:11:40.018Z,14.70
2023-03-17T17:14:09.260Z,14.40
2023-03-17T17:16:40.377Z,14.30
2023-03-17T17:19:15.336Z,14.30
2023-03-17T17:21:43.420Z,14.40
2023-03-17T17:24:12.278Z,14.20
2023-03-17T17:26:40.456Z,14.20
2023-03-17T17:29:09.922Z,14.10
2023-03-17T17:31:37.848Z,14.10
2023-03-17T17:34:05.774Z,14.10
2023-03-17T17:36:33.784Z,14.10
2023-03-17T17:39:01.693Z,14.00
2023-03-17T17:41:31.464Z,14.20
2023-03-17T17:44:00.461Z,13.80
2023-03-17T17:46:30.939Z,13.80
2023-03-17T17:48:58.953Z,13.90
2023-03-17T17:51:28.620Z,13.70
2023-03-17T17:53:56.620Z,13.70
2023-03-17T17:56:24.550Z,13.70
2023-03-17T17:58:52.426Z,13.70
2023-03-17T18:01:22.624Z,14.00
2023-03-17T18:03:51.994Z,13.50
2023-03-17T18:06:19.901Z,13.60
2023-03-17T18:08:48.079Z,14.10
2023-03-17T18:11:15.966Z,13.50
2023-03-17T18:13:43.830Z,13.50
2023-03-17T18:16:15.537Z,13.40
2023-03-17T18:18:45.559Z,13.40
2023-03-17T18:21:15.166Z,13.40
2023-03-17T18:23:46.992Z,13.20
2023-03-17T18:26:15.821Z,13.30
2023-03-17T18:28:44.378Z,13.20
2023-03-17T18:31:16.513Z,13.20
2023-03-17T18:33:46.809Z,13.20
2023-03-17T18:36:16.198Z,13.10
2023-03-17T18:38:44.101Z,13.10
2023-03-17T18:41:12.352Z,13.10
2023-03-17T18:43:41.158Z,13.10
2023-03-17T18:46:09.560Z,13.00
2023-03-17T18:48:37.681Z,13.00
2023-03-17T18:51:05.626Z,12.80
2023-03-17T18:53:35.493Z,12.90
2023-03-17T18:56:03.779Z,12.90
2023-03-17T18:58:31.714Z,13.00
2023-03-17T19:01:00.682Z,12.90
2023-03-17T19:03:29.201Z,12.90
2023-03-17T19:05:57.951Z,12.90
2023-03-17T19:08:25.945Z,12.90
2023-03-17T19:10:55.184Z,13.00
2023-03-17T19:13:23.044Z,12.80
2023-03-17T19:15:51.337Z,12.70
2023-03-17T19:18:19.237Z,12.80
2023-03-17T19:20:47.142Z,12.80
2023-03-17T19:23:15.421Z,13.00
2023-03-17T19:25:43.326Z,12.70
2023-03-17T19:28:12.579Z,12.70
2023-03-17T19:30:40.658Z,12.70
2023-03-17T19:33:08.977Z,12.70
2023-03-17T19:35:36.895Z,12.70
2023-03-17T19:38:05.046Z,12.60
2023-03-17T19:40:33.253Z,12.60
2023-03-17T19:43:01.524Z,12.60
2023-03-17T19:45:30.976Z,12.60
2023-03-17T19:47:59.212Z,12.90
2023-03-17T19:50:27.237Z,12.60
2023-03-17T19:52:55.242Z,12.50
2023-03-17T19:55:24.801Z,13.10
2023-03-17T19:57:52.776Z,12.50
2023-03-17T20:00:22.533Z,12.50
2023-03-17T20:02:52.006Z,12.40
2023-03-17T20:05:20.595Z,12.40
2023-03-17T20:07:48.677Z,12.30
2023-03-17T20:10:16.674Z,12.20
2023-03-17T20:12:45.670Z,12.30
2023-03-17T20:15:14.939Z,12.70
2023-03-17T20:17:43.033Z,12.30
2023-03-17T20:20:14.398Z,12.30
2023-03-17T20:22:43.556Z,12.20
2023-03-17T20:25:12.317Z,12.10
2023-03-17T20:27:40.302Z,12.10
2023-03-17T20:30:12.220Z,12.50
2023-03-17T20:32:40.424Z,11.90
2023-03-17T20:35:09.040Z,11.90
2023-03-17T20:37:38.695Z,11.80
2023-03-17T20:40:10.578Z,11.90
2023-03-17T20:42:38.599Z,11.80
2023-03-17T20:45:07.416Z,11.70
2023-03-17T20:47:35.416Z,11.70
2023-03-17T20:50:06.155Z,11.60
2023-03-17T20:52:34.042Z,11.60
2023-03-17T20:55:05.775Z,11.50
2023-03-17T20:57:34.187Z,11.90
2023-03-17T21:00:02.494Z,11.50
2023-03-17T21:02:30.503Z,11.40
2023-03-17T21:04:58.390Z,11.40
2023-03-17T21:07:27.408Z,11.40
2023-03-17T21:09:56.443Z,11.30
2023-03-17T21:12:26.146Z,11.30
2023-03-17T21:14:54.246Z,11.30
2023-03-17T21:17:22.801Z,11.20
2023-03-17T21:19:50.891Z,11.20
2023-03-17T21:22:18.815Z,11.00
2023-03-17T21:24:47.051Z,11.10
2023-03-17T21:27:15.626Z,11.20
2023-03-17T21:29:45.348Z,11.10
2023-03-17T21:32:13.481Z,11.20
2023-03-17T21:34:41.479Z,11.30
2023-03-17T21:37:09.382Z,11.30
2023-03-17T21:39:37.311Z,11.60
2023-03-17T21:42:05.531Z,11.40
2023-03-17T21:44:33.435Z,11.40
2023-03-17T21:47:03.415Z,11.40
2023-03-17T21:49:31.420Z,11.40
2023-03-17T21:51:59.314Z,11.40
2023-03-17T21:54:27.191Z,11.30
2023-03-17T21:56:55.104Z,11.30
2023-03-17T21:59:23.513Z,11.30
2023-03-17T22:01:52.912Z,11.30
2023-03-17T22:04:22.288Z,11.10
2023-03-17T22:06:51.740Z,11.10
2023-03-17T22:09:20.573Z,11.10
2023-03-17T22:11:49.623Z,11.00
2023-03-17T22:14:20.480Z,11.00
2023-03-17T22:16:48.781Z,11.00
2023-03-17T22:19:18.755Z,10.90
2023-03-17T22:21:49.278Z,10.90
2023-03-17T22:24:17.437Z,10.90
2023-03-17T22:26:46.470Z,10.90
2023-03-17T22:29:15.021Z,10.90
2023-03-17T22:31:42.994Z,10.90
2023-03-17T22:34:10.903Z,10.90
2023-03-17T22:36:38.980Z,10.90
2023-03-17T22:39:10.441Z,10.90
2023-03-17T22:41:38.735Z,10.90
2023-03-17T22:44:09.173Z,11.10
2023-03-17T22:46:40.671Z,10.80
2023-03-17T22:49:09.101Z,10.80
2023-03-17T22:51:38.253Z,10.80
2023-03-17T22:54:06.450Z,11.50
2023-03-17T22:56:35.843Z,10.80
2023-03-17T22:59:03.716Z,10.80
2023-03-17T23:01:31.698Z,10.80
2023-03-17T23:03:59.648Z,10.80
2023-03-17T23:06:27.580Z,10.80
2023-03-17T23:08:55.986Z,10.70
2023-03-17T23:11:25.879Z,10.70
2023-03-17T23:13:55.627Z,10.70
2023-03-17T23:16:24.375Z,10.70
2023-03-17T23:18:52.563Z,10.70
2023-03-17T23:21:32.794Z,10.60
2023-03-17T23:24:01.506Z,10.60
2023-03-17T23:26:29.966Z,10.70
2023-03-17T23:28:59.429Z,10.70
2023-03-17T23:31:27.428Z,10.70
2023-03-17T23:33:55.346Z,10.80
2023-03-17T23:36:23.271Z,10.80
2023-03-17T23:38:52.188Z,10.90
2023-03-17T23:41:20.449Z,10.90
2023-03-17T23:43:48.952Z,11.00
2023-03-17T23:46:18.449Z,11.00
2023-03-17T23:48:46.680Z,11.10
2023-03-17T23:51:14.923Z,11.20
2023-03-17T23:53:42.959Z,11.20
2023-03-17T23:56:12.971Z,11.30
2023-03-17T23:58:41.426Z,11.30
